createdAt,value
2022-11-22T00:05:30.435Z,98320.22
2022-11-22T00:11:17.114Z,98322.97
2022-11-22T00:17:03.739Z,98321.84
2022-11-22T00:22:51.456Z,98323.56
2022-11-22T00:28:39.743Z,98316.41
2022-11-22T00:34:26.535Z,98301.53
2022-11-22T00:40:13.268Z,98291.78
2022-11-22T00:46:00.415Z,98299.81
2022-11-22T00:51:47.042Z,98296.19
2022-11-22T00:57:33.674Z,98292.72
2022-11-22T01:03:20.266Z,98292.28
2022-11-22T01:09:07.014Z,98289.41
2022-11-22T01:14:53.752Z,98302.66
2022-11-22T01:20:41.303Z,98299.91
2022-11-22T01:26:28.400Z,98306.84
2022-11-22T01:32:15.405Z,98293.84
2022-11-22T01:38:02.088Z,98302.75
2022-11-22T01:43:49.209Z,98293.88
2022-11-22T01:49:47.515Z,98304.06
2022-11-22T01:55:35.484Z,98298.56
2022-11-22T02:01:22.374Z,98286.56
2022-11-22T02:07:18.260Z,98292.22
2022-11-22T02:13:06.964Z,98297.38
2022-11-22T02:18:53.624Z,98295.91
2022-11-22T02:24:46.928Z,98289.28
2022-11-22T02:30:33.574Z,98295.31
2022-11-22T02:36:20.312Z,98283.34
2022-11-22T02:42:07.161Z,98289.84
2022-11-22T02:47:53.997Z,98292.50
2022-11-22T02:53:40.945Z,98301.66
2022-11-22T02:59:28.265Z,98292.88
2022-11-22T03:05:15.303Z,98290.56
2022-11-22T03:11:02.131Z,98284.81
2022-11-22T03:16:49.372Z,98277.59
2022-11-22T03:22:36.304Z,98282.16
2022-11-22T03:28:23.043Z,98282.94
2022-11-22T03:34:12.274Z,98281.09
2022-11-22T03:39:58.907Z,98278.34
2022-11-22T03:45:46.972Z,98288.53
2022-11-22T03:51:33.638Z,98268.56
2022-11-22T03:57:20.313Z,98273.81
2022-11-22T04:03:07.054Z,98274.59
2022-11-22T04:08:53.796Z,98273.53
2022-11-22T04:14:59.094Z,98273.34
2022-11-22T04:21:04.670Z,98283.28
2022-11-22T04:26:51.690Z,98284.34
2022-11-22T04:32:47.389Z,98281.22
2022-11-22T04:38:34.036Z,98289.66
2022-11-22T04:44:39.362Z,98289.66
2022-11-22T04:50:46.191Z,98286.38
2022-11-22T04:56:32.800Z,98298.44
2022-11-22T05:02:19.419Z,98303.69
2022-11-22T05:08:07.143Z,98300.97
2022-11-22T05:13:53.804Z,98307.25
2022-11-22T05:19:43.691Z,98318.78
2022-11-22T05:25:34.585Z,98298.81
2022-11-22T05:31:28.013Z,98295.09
2022-11-22T05:37:14.724Z,98295.41
2022-11-22T05:43:01.474Z,98300.50
2022-11-22T05:48:48.801Z,98305.28
2022-11-22T05:54:35.536Z,98310.69
2022-11-22T06:00:22.425Z,98313.75
2022-11-22T06:06:09.686Z,98322.44
2022-11-22T06:11:56.283Z,98318.59
2022-11-22T06:17:42.883Z,98318.28
2022-11-22T06:23:30.264Z,98322.03
2022-11-22T06:29:17.077Z,98319.25
2022-11-22T06:35:04.009Z,98322.97
2022-11-22T06:40:50.952Z,98322.97
2022-11-22T06:46:38.162Z,98339.16
2022-11-22T06:52:25.584Z,98341.19
2022-11-22T06:58:12.160Z,98359.09
2022-11-22T07:03:59.737Z,98365.72
2022-11-22T07:09:46.466Z,98373.13
2022-11-22T07:15:33.068Z,98375.78
2022-11-22T07:21:22.474Z,98397.16
2022-11-22T07:27:21.526Z,98381.72
2022-11-22T07:33:09.177Z,98401.22
2022-11-22T07:38:56.584Z,98390.47
2022-11-22T07:44:43.536Z,98395.56
2022-11-22T07:50:33.767Z,98406.34
2022-11-22T07:56:21.748Z,98416.78
2022-11-22T08:02:12.947Z,98413.22
2022-11-22T08:08:00.818Z,98402.69
2022-11-22T08:13:47.919Z,98410.59
2022-11-22T08:19:35.916Z,98406.63
2022-11-22T08:25:23.056Z,98407.03
2022-11-22T08:31:22.176Z,98426.44
2022-11-22T08:37:09.037Z,98445.66
2022-11-22T08:42:57.470Z,98444.16
2022-11-22T08:48:49.627Z,98438.72
2022-11-22T08:55:02.968Z,98440.44
2022-11-22T09:00:51.176Z,98435.78
2022-11-22T09:13:00.079Z,98447.47
2022-11-22T09:18:48.034Z,98467.66
2022-11-22T09:24:35.285Z,98446.16
2022-11-22T09:30:31.777Z,98446.81
2022-11-22T09:36:29.562Z,98447.09
2022-11-22T09:42:58.518Z,98455.47
2022-11-22T09:49:28.177Z,98455.81
2022-11-22T09:55:23.876Z,98472.28
2022-11-22T10:01:35.023Z,98479.59
2022-11-22T10:07:35.738Z,98485.25
2022-11-22T10:13:29.022Z,98483.03
2022-11-22T10:19:30.186Z,98468.50
2022-11-22T10:25:20.941Z,98486.22
2022-11-22T10:31:20.682Z,98473.13
2022-11-22T10:37:36.465Z,98479.94
2022-11-22T10:43:47.177Z,98475.47
2022-11-22T10:49:45.881Z,98479.56
2022-11-22T10:55:54.348Z,98476.66
2022-11-22T11:01:55.929Z,98479.75
2022-11-22T11:07:56.583Z,98466.56
2022-11-22T11:13:53.482Z,98469.75
2022-11-22T11:19:43.146Z,98449.16
2022-11-22T11:25:40.912Z,98457.84
2022-11-22T11:31:45.366Z,98446.66
2022-11-22T11:37:40.510Z,98455.78
2022-11-22T11:43:31.091Z,98449.59
2022-11-22T11:49:21.598Z,98453.38
2022-11-22T11:55:17.357Z,98445.69
2022-11-22T12:01:17.919Z,98464.63
2022-11-22T12:07:20.130Z,98474.59
2022-11-22T12:13:15.621Z,98461.56
2022-11-22T12:19:32.057Z,98463.41
2022-11-22T12:25:34.008Z,98469.06
2022-11-22T12:31:46.474Z,98477.47
2022-11-22T12:37:49.113Z,98483.66
2022-11-22T12:43:51.486Z,98482.63
2022-11-22T12:49:51.560Z,98479.09
2022-11-22T12:56:08.271Z,98489.38
2022-11-22T13:02:22.194Z,98496.66
2022-11-22T13:08:15.065Z,98509.13
2022-11-22T13:14:20.811Z,98500.28
2022-11-22T13:20:17.225Z,98515.75
2022-11-22T13:26:21.770Z,98521.03
2022-11-22T13:32:11.699Z,98512.31
2022-11-22T13:38:05.449Z,98516.31
2022-11-22T13:43:58.213Z,98512.19
2022-11-22T13:49:51.465Z,98529.88
2022-11-22T13:55:42.363Z,98533.41
2022-11-22T14:01:35.958Z,98535.47
2022-11-22T14:07:33.126Z,98553.03
2022-11-22T14:13:57.510Z,98566.53
2022-11-22T14:20:07.473Z,98567.72
2022-11-22T14:26:00.964Z,98581.28
2022-11-22T14:32:03.988Z,98587.25
2022-11-22T14:38:09.234Z,98581.19
2022-11-22T14:44:10.116Z,98600.19
2022-11-22T14:50:01.088Z,98600.91
2022-11-22T14:55:49.249Z,98599.44
2022-11-22T15:01:56.806Z,98606.31
2022-11-22T15:09:20.989Z,98612.38
2022-11-22T15:58:58.784Z,98678.31
2022-11-22T16:06:08.429Z,98696.34
2022-11-22T16:11:20.535Z,98703.72
2022-11-22T16:17:49.573Z,98724.59
2022-11-22T16:23:40.827Z,98726.31
2022-11-22T16:29:35.647Z,98731.91
2022-11-22T16:35:29.632Z,98746.84
2022-11-22T16:41:29.335Z,98745.75
2022-11-22T16:47:19.917Z,98761.88
2022-11-22T16:53:16.723Z,98772.69
2022-11-22T16:59:11.104Z,98788.09
2022-11-22T17:05:11.114Z,98790.25
2022-11-22T17:10:59.981Z,98788.78
2022-11-22T17:16:47.202Z,98808.69
2022-11-22T17:22:44.447Z,98806.94
2022-11-22T17:28:31.772Z,98816.78
2022-11-22T17:34:18.558Z,98814.84
2022-11-22T17:40:09.206Z,98827.84
2022-11-22T17:46:00.614Z,98840.03
2022-11-22T17:51:47.853Z,98845.31
2022-11-22T17:57:37.072Z,98855.47
2022-11-22T18:03:23.934Z,98865.22
2022-11-22T18:09:10.832Z,98867.72
2022-11-22T18:14:58.636Z,98878.34
2022-11-22T18:20:49.677Z,98883.84
2022-11-22T18:26:40.587Z,98887.81
2022-11-22T18:32:35.951Z,98903.22
2022-11-22T18:38:30.212Z,98894.72
2022-11-22T18:44:23.191Z,98900.78
2022-11-22T18:56:10.123Z,98926.75
2022-11-22T19:01:58.161Z,98932.66
2022-11-22T19:07:50.221Z,98940.63
2022-11-22T19:13:39.610Z,98947.47
2022-11-22T19:19:34.353Z,98932.63
2022-11-22T19:25:21.437Z,98929.63
2022-11-22T19:31:12.401Z,98929.00
2022-11-22T19:37:09.298Z,98933.53
2022-11-22T19:43:01.194Z,98939.38
2022-11-22T19:48:52.925Z,98939.03
2022-11-22T19:54:39.650Z,98937.19
2022-11-22T20:00:26.889Z,98936.97
2022-11-22T20:06:14.730Z,98943.16
2022-11-22T20:12:01.704Z,98954.94
2022-11-22T20:17:51.752Z,98960.56
2022-11-22T20:23:38.967Z,98959.41
2022-11-22T20:29:25.799Z,98961.97
2022-11-22T20:35:13.137Z,98972.84
2022-11-22T20:41:05.075Z,98972.97
2022-11-22T20:46:52.123Z,98983.59
2022-11-22T20:53:54.987Z,98969.97
2022-11-22T21:01:23.022Z,98978.94
2022-11-22T21:07:12.359Z,98976.94
2022-11-22T21:13:43.835Z,98982.69
2022-11-22T21:19:48.661Z,98998.91
2022-11-22T21:32:48.464Z,99001.94
2022-11-22T21:38:47.516Z,99011.97
2022-11-22T21:51:26.401Z,99023.50
2022-11-22T21:57:13.354Z,99037.22
2022-11-22T22:03:00.009Z,99044.44
2022-11-22T22:08:46.837Z,99044.06
2022-11-22T22:14:33.455Z,99051.47
2022-11-22T22:20:27.749Z,99048.06
2022-11-22T22:26:17.055Z,99050.50
2022-11-22T22:32:09.088Z,99046.88
2022-11-22T22:38:01.009Z,99059.38
2022-11-22T22:43:49.026Z,99059.94
2022-11-22T22:49:36.986Z,99053.41
2022-11-22T22:55:30.522Z,99051.47
2022-11-22T23:01:24.002Z,99042.38
2022-11-22T23:07:13.914Z,99041.53
2022-11-22T23:13:04.388Z,99047.94
2022-11-22T23:18:56.176Z,99044.16
2022-11-22T23:24:45.791Z,99056.19
2022-11-22T23:30:32.524Z,99046.38
2022-11-22T23:36:20.787Z,99055.94
2022-11-22T23:42:08.068Z,99063.34
2022-11-22T23:47:54.844Z,99059.88
2022-11-22T23:53:41.847Z,99065.13
2022-11-22T23:59:28.978Z,99067.56
